Time;durP1;ratioP1;P1;durP2;ratioP2;P2;SDS_P1;SDS_P2;PMS_P1;PMS_P2;Temp;Humidity;BMP_temperature;BMP_pressure;BME280_temperature;BME280_humidity;BME280_pressure;Samples;Min_cycle;Max_cycle;Signal;HPM_P1;HPM_P2
2021/11/10 00:00:03;;;;;;;;;;;;;;;6.01;83.65;102194.66;1913871;75;20122;-61
2021/11/10 00:02:33;;;;;;;;;;;;;;;5.99;83.51;102192.02;1912564;75;20175;-62
2021/11/10 00:05:01;;;;;;;;;;;;;;;5.97;83.48;102197.25;1913808;75;20123;-62
2021/11/10 00:07:28;;;;;;;;;;;;;;;5.94;83.47;102197.66;1913922;75;20123;-62
2021/11/10 00:09:56;;;;;;;;;;;;;;;5.87;83.51;102195.45;1913872;75;20178;-62
2021/11/10 00:12:24;;;;;;;;;;;;;;;5.82;83.53;102189.33;1913924;75;20115;-61
2021/11/10 00:14:52;;;;;;;;;;;;;;;5.76;83.50;102198.02;1914108;75;20209;-62
2021/11/10 00:17:20;;;;;;;;;;;;;;;5.75;83.50;102192.78;1913898;75;20126;-61
2021/11/10 00:19:48;;;;;;;;;;;;;;;5.73;83.04;102197.99;1913869;75;20116;-61
2021/11/10 00:22:16;;;;;;;;;;;;;;;5.71;83.18;102201.03;1914029;75;20182;-62
2021/11/10 00:24:44;;;;;;;;;;;;;;;5.69;83.04;102196.23;1913951;75;20141;-62
2021/11/10 00:27:11;;;;;;;;;;;;;;;5.71;82.89;102201.03;1883947;76;20108;-62
2021/11/10 00:29:39;;;;;;;;;;;;;;;5.71;82.75;102187.10;1904021;75;20145;-62
2021/11/10 00:32:08;;;;;;;;;;;;;;;5.70;82.69;102178.81;1914028;75;20114;-61
2021/11/10 00:34:36;;;;;;;;;;;;;;;5.70;82.62;102187.55;1914053;75;20141;-61
2021/11/10 00:37:04;;;;;;;;;;;;;;;5.68;82.59;102187.98;1913989;75;20111;-63
2021/11/10 00:39:32;;;;;;;;;;;;;;;5.69;82.54;102197.55;1914001;75;20149;-62
2021/11/10 00:42:00;;;;;;;;;;;;;;;5.68;82.50;102206.27;1914008;75;20119;-62
2021/11/10 00:44:28;;;;;;;;;;;;;;;5.68;82.54;102215.42;1914046;75;20119;-61
2021/11/10 00:46:56;;;;;;;;;;;;;;;5.70;82.49;102218.91;1914039;75;20188;-62
2021/11/10 00:49:24;;;;;;;;;;;;;;;5.68;82.48;102233.71;1914047;75;20145;-62
2021/11/10 00:51:52;;;;;;;;;;;;;;;5.66;82.43;102238.03;1913977;75;20103;-62
2021/11/10 00:54:19;;;;;;;;;;;;;;;5.65;82.54;102251.98;1914025;75;20119;-61
2021/11/10 00:56:47;;;;;;;;;;;;;;;5.66;82.54;102266.77;1914055;75;20114;-62
2021/11/10 00:59:15;;;;;;;;;;;;;;;5.67;82.55;102267.23;1914272;75;20119;-62
2021/11/10 01:01:43;;;;;;;;;;;;;;;5.64;82.59;102265.03;1914178;75;20385;-62
2021/11/10 01:04:13;;;;;;;;;;;;;;;5.61;82.60;102267.20;1914017;75;20115;-62
2021/11/10 01:06:41;;;;;;;;;;;;;;;5.58;82.62;102273.70;1921385;74;20232;-62
2021/11/10 01:09:16;;;;;;;;;;;;;;;5.55;82.65;102265.84;1917513;75;20189;-62
2021/11/10 01:11:39;;;;;;;;;;;;;;;5.58;82.55;102263.26;1916736;75;20103;-61
2021/11/10 01:14:06;;;;;;;;;;;;;;;5.60;82.43;102257.61;1917626;75;20193;-61
2021/11/10 01:16:34;;;;;;;;;;;;;;;5.57;82.17;102261.49;1917532;75;20119;-61
2021/11/10 01:19:03;;;;;;;;;;;;;;;5.55;82.31;102271.06;1917665;75;20107;-61
2021/11/10 01:21:31;;;;;;;;;;;;;;;5.52;82.24;102271.94;1917528;75;20154;-61
2021/11/10 01:23:59;;;;;;;;;;;;;;;5.51;82.23;102284.98;1917526;75;20161;-61
2021/11/10 01:26:27;;;;;;;;;;;;;;;5.45;82.08;102288.87;1917590;75;20158;-61
2021/11/10 01:28:55;;;;;;;;;;;;;;;5.35;81.97;102291.86;1917489;75;20107;-62
2021/11/10 01:31:23;;;;;;;;;;;;;;;5.25;81.85;102302.64;1917435;75;20135;-62
2021/11/10 01:33:52;;;;;;;;;;;;;;;5.21;81.90;102310.02;1917502;75;20377;-62
2021/11/10 01:36:20;;;;;;;;;;;;;;;5.17;81.91;102314.77;1917599;75;20114;-62
2021/11/10 01:38:48;;;;;;;;;;;;;;;5.14;81.94;102314.73;1917513;75;20106;-62
2021/11/10 01:41:16;;;;;;;;;;;;;;;5.09;81.85;102309.48;1917560;75;20118;-61
2021/11/10 01:43:46;;;;;;;;;;;;;;;5.00;81.75;102306.36;1917528;75;20617;-61
2021/11/10 01:46:13;;;;;;;;;;;;;;;4.94;81.87;102318.05;1917479;75;20201;-62
2021/11/10 01:48:42;;;;;;;;;;;;;;;4.92;81.60;102341.94;1917513;75;20110;-62
2021/11/10 01:51:10;;;;;;;;;;;;;;;4.86;81.69;102345.80;1917688;75;20149;-61
2021/11/10 01:53:38;;;;;;;;;;;;;;;4.85;81.77;102364.95;1917508;75;20118;-61
2021/11/10 01:56:06;;;;;;;;;;;;;;;4.84;81.73;102368.41;1917516;75;20150;-61
2021/11/10 01:58:34;;;;;;;;;;;;;;;4.83;81.71;102376.67;1917442;75;20197;-62
2021/11/10 02:01:02;;;;;;;;;;;;;;;4.83;81.74;102377.98;1917439;75;20106;-61
2021/11/10 02:03:30;;;;;;;;;;;;;;;4.85;81.76;102381.91;1917612;75;20115;-62
2021/11/10 02:05:59;;;;;;;;;;;;;;;4.87;81.84;102382.80;1913818;74;20122;-61
2021/11/10 02:08:31;;;;;;;;;;;;;;;4.88;81.87;102381.06;1915256;74;20396;-61
2021/11/10 02:10:59;;;;;;;;;;;;;;;4.92;81.79;102399.36;1917609;75;20423;-62
2021/11/10 02:13:28;;;;;;;;;;;;;;;4.92;81.66;102396.75;1917600;75;20118;-61
2021/11/10 02:15:56;;;;;;;;;;;;;;;4.91;81.18;102393.72;1917514;75;20150;-61
2021/11/10 02:18:25;;;;;;;;;;;;;;;4.88;81.51;102397.59;1892182;75;20122;-61
2021/11/10 02:20:54;;;;;;;;;;;;;;;4.92;81.47;102405.89;1917145;75;20135;-61
2021/11/10 02:23:22;;;;;;;;;;;;;;;4.88;81.33;102400.63;1917590;75;20389;-62
2021/11/10 02:25:56;;;;;;;;;;;;;;;4.88;81.34;102403.25;1917399;75;20119;-61
2021/11/10 02:28:19;;;;;;;;;;;;;;;4.83;81.24;102402.77;1916729;75;20145;-61
2021/11/10 02:30:47;;;;;;;;;;;;;;;4.81;81.24;102403.59;1917503;75;20154;-61
2021/11/10 02:33:16;;;;;;;;;;;;;;;4.80;81.09;102403.16;1917491;75;20141;-62
2021/11/10 02:35:44;;;;;;;;;;;;;;;4.76;80.86;102405.30;1915867;75;20150;-62
2021/11/10 02:38:13;;;;;;;;;;;;;;;4.72;80.84;102404.79;1917431;75;20098;-63
2021/11/10 02:40:41;;;;;;;;;;;;;;;4.69;80.67;102408.69;1917489;75;20153;-62
2021/11/10 02:43:09;;;;;;;;;;;;;;;4.64;80.65;102406.88;1917461;75;20110;-62
2021/11/10 02:45:37;;;;;;;;;;;;;;;4.59;80.64;102403.36;1917460;75;20162;-61
2021/11/10 02:48:05;;;;;;;;;;;;;;;4.53;80.53;102401.09;1917482;75;20114;-62
2021/11/10 02:50:33;;;;;;;;;;;;;;;4.52;80.67;102411.06;1917445;75;20118;-62
2021/11/10 02:53:01;;;;;;;;;;;;;;;4.50;80.58;102416.28;1917449;75;20173;-61
2021/11/10 02:55:29;;;;;;;;;;;;;;;4.52;80.29;102413.27;1917456;75;20153;-61
2021/11/10 02:57:58;;;;;;;;;;;;;;;4.55;80.17;102416.33;1917468;75;20103;-62
2021/11/10 03:00:27;;;;;;;;;;;;;;;4.54;80.10;102433.72;1917486;75;20119;-61
2021/11/10 03:02:56;;;;;;;;;;;;;;;4.52;80.07;102437.14;1917566;75;20099;-62
2021/11/10 03:05:25;;;;;;;;;;;;;;;4.55;80.10;102435.89;1917401;75;20443;-62
2021/11/10 03:07:54;;;;;;;;;;;;;;;4.54;79.98;102431.11;1916845;74;20165;-61
2021/11/10 03:10:22;;;;;;;;;;;;;;;4.52;79.92;102435.44;1917612;75;20130;-61
2021/11/10 03:12:51;;;;;;;;;;;;;;;4.54;79.96;102443.29;1917470;75;20166;-62
2021/11/10 03:15:20;;;;;;;;;;;;;;;4.51;79.83;102442.80;1917013;75;20114;-61
2021/11/10 03:17:49;;;;;;;;;;;;;;;4.52;79.83;102442.36;1917315;75;20127;-62
2021/11/10 03:20:17;;;;;;;;;;;;;;;4.52;79.74;102458.02;1892192;75;20165;-62
2021/11/10 03:22:45;;;;;;;;;;;;;;;4.50;78.90;102459.73;1917428;75;20111;-62
2021/11/10 03:25:12;;;;;;;;;;;;;;;4.44;79.44;102467.05;1917460;75;20373;-62
2021/11/10 03:27:40;;;;;;;;;;;;;;;4.48;79.60;102477.97;1917452;75;20115;-62
2021/11/10 03:30:10;;;;;;;;;;;;;;;4.44;78.86;102481.39;1917114;75;20142;-63
2021/11/10 03:32:45;;;;;;;;;;;;;;;4.40;79.05;102483.52;1915032;75;20166;-62
2021/11/10 03:35:14;;;;;;;;;;;;;;;4.43;79.37;102483.57;1892101;75;20118;-61
2021/11/10 03:37:42;;;;;;;;;;;;;;;4.47;79.42;102494.48;1917486;75;20103;-62
2021/11/10 03:40:12;;;;;;;;;;;;;;;4.50;79.42;102501.47;1917549;75;20122;-62
2021/11/10 03:42:41;;;;;;;;;;;;;;;4.50;79.38;102504.08;1916768;75;20103;-62
2021/11/10 03:45:10;;;;;;;;;;;;;;;4.50;79.42;102507.59;1917460;75;20115;-61
2021/11/10 03:47:38;;;;;;;;;;;;;;;4.49;79.22;102516.25;1917530;75;20361;-62
2021/11/10 03:50:07;;;;;;;;;;;;;;;4.51;79.07;102525.41;1917476;75;20152;-61
2021/11/10 03:52:35;;;;;;;;;;;;;;;4.50;78.92;102525.84;1917425;75;20353;-62
2021/11/10 03:55:03;;;;;;;;;;;;;;;4.50;79.01;102545.81;1917462;75;20137;-62
2021/11/10 03:57:32;;;;;;;;;;;;;;;4.51;78.96;102547.15;1917504;75;20400;-62
2021/11/10 04:00:00;;;;;;;;;;;;;;;4.50;78.96;102553.64;1917501;75;20149;-62
2021/11/10 04:02:28;;;;;;;;;;;;;;;4.48;78.92;102559.27;1917627;75;20102;-61
2021/11/10 04:04:56;;;;;;;;;;;;;;;4.50;78.79;102562.77;1917610;75;20123;-62
2021/11/10 04:07:25;;;;;;;;;;;;;;;4.51;78.74;102568.02;1917584;74;20145;-62
2021/11/10 04:09:53;;;;;;;;;;;;;;;4.50;78.78;102569.30;1917470;75;20141;-62
2021/11/10 04:12:22;;;;;;;;;;;;;;;4.51;78.42;102571.94;1917608;75;20123;-62
2021/11/10 04:14:50;;;;;;;;;;;;;;;4.50;78.49;102579.33;1917458;75;20115;-62
2021/11/10 04:17:17;;;;;;;;;;;;;;;4.51;78.31;102582.37;1917543;75;20158;-62
2021/11/10 04:19:46;;;;;;;;;;;;;;;4.49;78.34;102575.39;1917510;75;20141;-62
2021/11/10 04:22:15;;;;;;;;;;;;;;;4.47;78.24;102585.79;1917521;75;20162;-62
2021/11/10 04:24:43;;;;;;;;;;;;;;;4.46;78.28;102581.41;1917460;75;20197;-62
2021/11/10 04:27:14;;;;;;;;;;;;;;;4.48;78.38;102593.18;1917695;75;20122;-61
2021/11/10 04:32:31;;;;;;;;;;;;;;;4.49;78.35;102591.03;1850378;78;20401;-62
2021/11/10 04:34:59;;;;;;;;;;;;;;;4.45;78.36;102596.63;1850318;78;20126;-62
2021/11/10 04:37:27;;;;;;;;;;;;;;;4.42;78.21;102609.17;1851044;77;20409;-62
2021/11/10 04:39:55;;;;;;;;;;;;;;;4.40;78.18;102615.23;1855761;77;20127;-62
2021/11/10 04:42:23;;;;;;;;;;;;;;;4.37;78.25;102617.78;1855697;77;20114;-62
2021/11/10 04:44:57;;;;;;;;;;;;;;;4.34;78.14;102620.36;1855771;77;20157;-62
2021/11/10 04:47:21;;;;;;;;;;;;;;;4.35;78.19;102618.19;1855148;77;20145;-63
2021/11/10 04:49:49;;;;;;;;;;;;;;;4.36;78.13;102622.13;1855931;77;20135;-62
2021/11/10 04:52:17;;;;;;;;;;;;;;;4.37;78.18;102624.30;1855714;77;20119;-62
2021/11/10 04:54:45;;;;;;;;;;;;;;;4.36;78.04;102632.56;1855714;77;20119;-62
2021/11/10 04:57:13;;;;;;;;;;;;;;;4.36;77.99;102632.56;1855717;77;20188;-62
2021/11/10 04:59:42;;;;;;;;;;;;;;;4.37;77.82;102643.86;1855746;77;20146;-61
2021/11/10 05:04:42;;;;;;;;;;;;;;;4.47;77.89;102651.00;1855723;77;20139;-62
2021/11/10 05:07:12;;;;;;;;;;;;;;;4.52;77.34;102655.88;1855881;77;20141;-62
2021/11/10 05:09:40;;;;;;;;;;;;;;;4.52;77.24;102662.41;1855712;77;20114;-62
2021/11/10 05:12:09;;;;;;;;;;;;;;;4.51;76.89;102663.23;1855721;77;20146;-62
2021/11/10 05:14:38;;;;;;;;;;;;;;;4.67;76.94;102660.87;1855663;77;20393;-62
2021/11/10 05:17:06;;;;;;;;;;;;;;;5.41;76.54;102663.72;1855873;77;20233;-62
2021/11/10 05:19:34;;;;;;;;;;;;;;;6.18;75.62;102665.09;1855791;77;20162;-62
2021/11/10 05:22:03;;;;;;;;;;;;;;;6.86;75.12;102674.41;1855741;77;20118;-62
2021/11/10 05:24:30;;;;;;;;;;;;;;;7.53;74.49;102679.61;1855740;77;20119;-62
2021/11/10 05:26:58;;;;;;;;;;;;;;;8.14;73.96;102680.25;1855657;77;20122;-63
2021/11/10 05:29:26;;;;;;;;;;;;;;;8.62;72.96;102688.22;1855729;77;20431;-62
2021/11/10 05:31:54;;;;;;;;;;;;;;;9.08;71.14;102690.38;1838989;77;20124;-62
2021/11/10 05:34:22;;;;;;;;;;;;;;;9.64;71.14;102693.72;1826962;79;20151;-62
2021/11/10 05:36:50;;;;;;;;;;;;;;;10.18;70.20;102691.25;1826979;79;20111;-62
2021/11/10 05:39:17;;;;;;;;;;;;;;;10.87;68.54;102693.86;1826973;79;20124;-62
2021/11/10 05:41:45;;;;;;;;;;;;;;;11.33;68.19;102699.99;1826869;79;20154;-62
2021/11/10 05:44:14;;;;;;;;;;;;;;;11.55;67.08;102704.13;1826934;79;20124;-62
2021/11/10 05:46:42;;;;;;;;;;;;;;;11.43;65.74;102710.86;1826953;79;20120;-62
2021/11/10 05:49:10;;;;;;;;;;;;;;;11.73;65.38;102708.74;1826932;79;20112;-63
2021/11/10 05:51:38;;;;;;;;;;;;;;;11.26;65.62;102711.04;1826960;79;20154;-62
2021/11/10 05:54:06;;;;;;;;;;;;;;;10.60;65.82;102703.73;1826887;79;20155;-63
2021/11/10 05:56:36;;;;;;;;;;;;;;;10.20;66.11;102702.68;1826963;79;20159;-62
2021/11/10 05:59:03;;;;;;;;;;;;;;;9.69;64.49;102708.63;1827072;79;20112;-62
2021/11/10 06:01:31;;;;;;;;;;;;;;;9.12;65.45;102723.23;1826962;79;20120;-62
2021/11/10 06:04:00;;;;;;;;;;;;;;;9.47;65.50;102711.32;1826962;79;20379;-62
2021/11/10 06:06:28;;;;;;;;;;;;;;;10.57;64.37;102714.31;1826923;79;20401;-62
2021/11/10 06:08:56;;;;;;;;;;;;;;;11.30;62.88;102718.48;1826894;79;20249;-62
2021/11/10 06:11:24;;;;;;;;;;;;;;;11.78;60.10;102722.77;1826964;79;20124;-62
2021/11/10 06:13:52;;;;;;;;;;;;;;;12.11;59.46;102728.53;1826947;79;20120;-62
2021/11/10 06:16:20;;;;;;;;;;;;;;;12.23;59.00;102732.76;1826950;79;20120;-62
2021/11/10 06:18:47;;;;;;;;;;;;;;;12.45;58.00;102730.67;1826909;79;20120;-62
2021/11/10 06:21:15;;;;;;;;;;;;;;;12.03;56.45;102738.34;1826878;79;20171;-63
2021/11/10 06:23:43;;;;;;;;;;;;;;;12.95;56.94;102732.98;1826948;79;20127;-62
2021/11/10 06:26:12;;;;;;;;;;;;;;;12.67;55.80;102726.83;1826981;79;20120;-62
2021/11/10 06:28:40;;;;;;;;;;;;;;;11.86;57.38;102735.86;1826834;79;20395;-62
2021/11/10 06:31:09;;;;;;;;;;;;;;;11.29;57.56;102743.12;1826795;77;20154;-63
2021/11/10 06:33:37;;;;;;;;;;;;;;;10.65;58.44;102749.36;1826895;79;20166;-63
2021/11/10 06:36:05;;;;;;;;;;;;;;;10.60;59.41;102747.20;1826826;79;20607;-62
2021/11/10 06:38:33;;;;;;;;;;;;;;;10.95;59.35;102750.87;1826854;79;20124;-62
2021/11/10 06:41:01;;;;;;;;;;;;;;;11.04;58.62;102756.52;1826840;79;20150;-62
2021/11/10 06:43:28;;;;;;;;;;;;;;;10.86;57.93;102756.22;1826805;79;20116;-62
2021/11/10 06:45:56;;;;;;;;;;;;;;;11.75;56.44;102765.91;1826812;79;20124;-62
2021/11/10 06:48:24;;;;;;;;;;;;;;;11.79;55.37;102765.44;1826789;79;20112;-62
2021/11/10 06:50:52;;;;;;;;;;;;;;;12.33;54.95;102766.95;1826835;79;20107;-62
2021/11/10 06:53:20;;;;;;;;;;;;;;;11.83;55.95;102766.27;1826871;79;20154;-62
2021/11/10 06:55:48;;;;;;;;;;;;;;;11.23;57.00;102767.76;1826823;79;20104;-62
2021/11/10 06:58:17;;;;;;;;;;;;;;;11.22;57.38;102771.75;1826820;79;20132;-63
2021/11/10 07:00:45;;;;;;;;;;;;;;;10.94;57.41;102774.63;1826787;79;20158;-63
2021/11/10 07:03:13;;;;;;;;;;;;;;;10.49;57.30;102779.32;1826782;79;20128;-62
2021/11/10 07:05:41;;;;;;;;;;;;;;;9.94;57.62;102777.38;1826902;79;20146;-62
2021/11/10 07:08:09;;;;;;;;;;;;;;;9.94;58.70;102783.95;1826814;79;20123;-62
2021/11/10 07:10:37;;;;;;;;;;;;;;;10.32;58.52;102782.92;1826800;79;20123;-62
2021/11/10 07:13:05;;;;;;;;;;;;;;;11.17;56.78;102788.47;1826822;79;20112;-62
2021/11/10 07:15:32;;;;;;;;;;;;;;;12.14;53.97;102789.24;1826725;79;20151;-62
2021/11/10 07:18:00;;;;;;;;;;;;;;;13.30;52.30;102784.39;1826850;79;20112;-62
2021/11/10 07:20:28;;;;;;;;;;;;;;;13.46;52.55;102789.86;1826798;79;20151;-63
2021/11/10 07:22:59;;;;;;;;;;;;;;;12.31;52.67;102791.20;1826739;79;20175;-62
2021/11/10 07:25:26;;;;;;;;;;;;;;;11.05;53.94;102789.91;1826659;78;20155;-62
2021/11/10 07:27:54;;;;;;;;;;;;;;;10.07;55.15;102797.05;1826877;79;20409;-63
2021/11/10 07:30:22;;;;;;;;;;;;;;;9.35;56.37;102799.00;1826771;79;20191;-62
2021/11/10 07:32:50;;;;;;;;;;;;;;;8.84;57.58;102804.23;1826818;78;20127;-62
2021/11/10 07:35:19;;;;;;;;;;;;;;;8.52;58.30;102809.86;1826905;79;20108;-62
2021/11/10 07:37:48;;;;;;;;;;;;;;;8.21;59.26;102814.55;1826916;79;20477;-62
2021/11/10 07:40:17;;;;;;;;;;;;;;;7.93;59.89;102816.18;1826898;79;20464;-62
2021/11/10 07:42:45;;;;;;;;;;;;;;;7.70;60.05;102816.90;1826838;79;20150;-62
2021/11/10 07:45:23;;;;;;;;;;;;;;;7.45;60.68;102825.47;1826950;79;20147;-62
2021/11/10 07:47:52;;;;;;;;;;;;;;;7.28;60.99;102823.59;1826613;79;20390;-63
2021/11/10 07:50:20;;;;;;;;;;;;;;;7.15;61.48;102825.67;1826781;79;20120;-62
2021/11/10 07:52:48;;;;;;;;;;;;;;;7.01;61.90;102829.90;1826893;79;20124;-64
2021/11/10 07:55:17;;;;;;;;;;;;;;;6.89;62.35;102830.23;1826823;79;20175;-62
2021/11/10 07:57:44;;;;;;;;;;;;;;;6.84;62.55;102824.09;1804897;78;20155;-61
2021/11/10 08:00:14;;;;;;;;;;;;;;;6.79;62.82;102837.98;1826875;79;20155;-61
2021/11/10 08:02:42;;;;;;;;;;;;;;;6.77;63.06;102843.22;1825468;78;20123;-62
2021/11/10 08:05:10;;;;;;;;;;;;;;;6.79;63.21;102846.73;1826896;79;20104;-62
2021/11/10 08:07:38;;;;;;;;;;;;;;;6.86;63.44;102838.08;1826825;79;20124;-62
2021/11/10 08:10:07;;;;;;;;;;;;;;;6.92;63.63;102847.73;1826889;79;20163;-62
2021/11/10 08:12:36;;;;;;;;;;;;;;;6.95;63.61;102851.27;1826896;79;20378;-62
2021/11/10 08:15:08;;;;;;;;;;;;;;;6.98;63.71;102844.30;1827022;79;20398;-62
2021/11/10 08:17:36;;;;;;;;;;;;;;;6.99;63.85;102861.75;1826976;79;20425;-62
2021/11/10 08:20:05;;;;;;;;;;;;;;;6.93;63.79;102871.33;1826835;79;20120;-63
2021/11/10 08:22:33;;;;;;;;;;;;;;;6.77;64.01;102873.34;1825841;77;20151;-62
2021/11/10 08:25:01;;;;;;;;;;;;;;;6.66;64.32;102865.77;1816326;78;20162;-62
2021/11/10 08:27:30;;;;;;;;;;;;;;;6.63;64.68;102861.39;1839990;78;20103;-62
2021/11/10 08:29:58;;;;;;;;;;;;;;;6.76;64.89;102859.78;1826882;79;20124;-62
2021/11/10 08:32:26;;;;;;;;;;;;;;;6.93;64.97;102854.30;1826796;78;20171;-62
2021/11/10 08:34:53;;;;;;;;;;;;;;;6.99;64.88;102862.66;1826837;79;20547;-62
2021/11/10 08:37:21;;;;;;;;;;;;;;;7.03;64.76;102855.70;1826871;79;20155;-62
2021/11/10 08:39:49;;;;;;;;;;;;;;;7.11;64.49;102852.71;1826880;79;20124;-62
2021/11/10 08:42:17;;;;;;;;;;;;;;;7.11;64.49;102859.27;1826991;79;20120;-62
2021/11/10 08:44:47;;;;;;;;;;;;;;;7.17;64.48;102860.62;1826916;79;20116;-62
2021/11/10 08:47:15;;;;;;;;;;;;;;;7.26;64.62;102862.45;1826906;79;20159;-62
2021/11/10 08:49:43;;;;;;;;;;;;;;;7.37;64.59;102861.23;1826991;79;20112;-62
2021/11/10 08:52:11;;;;;;;;;;;;;;;7.44;64.40;102856.05;1826853;79;20116;-62
2021/11/10 08:54:39;;;;;;;;;;;;;;;7.44;64.37;102857.80;1826868;79;20120;-62
2021/11/10 08:57:07;;;;;;;;;;;;;;;7.41;64.39;102865.62;1826882;79;20167;-62
2021/11/10 08:59:34;;;;;;;;;;;;;;;7.31;64.52;102860.31;1826873;79;20127;-62
2021/11/10 09:02:02;;;;;;;;;;;;;;;7.25;64.71;102865.52;1826836;79;20190;-62
2021/11/10 09:04:30;;;;;;;;;;;;;;;7.18;64.90;102862.39;1826847;79;20124;-62
2021/11/10 09:06:58;;;;;;;;;;;;;;;7.05;65.08;102872.31;1826825;79;20128;-62
2021/11/10 09:09:26;;;;;;;;;;;;;;;6.94;65.15;102875.69;1826976;79;20194;-62
2021/11/10 09:11:54;;;;;;;;;;;;;;;6.85;64.84;102867.73;1826890;79;20108;-62
2021/11/10 09:14:21;;;;;;;;;;;;;;;6.77;64.93;102877.27;1826806;79;20123;-62
2021/11/10 09:16:50;;;;;;;;;;;;;;;6.76;65.14;102876.80;1826880;79;20120;-62
2021/11/10 09:19:17;;;;;;;;;;;;;;;6.75;65.24;102872.41;1826893;79;20154;-62
2021/11/10 09:21:45;;;;;;;;;;;;;;;6.69;65.25;102877.15;1826888;79;20116;-62
2021/11/10 09:24:14;;;;;;;;;;;;;;;6.67;65.37;102878.01;1826843;79;20124;-62
2021/11/10 09:26:42;;;;;;;;;;;;;;;6.76;65.46;102883.34;1832911;78;20108;-63
2021/11/10 09:29:10;;;;;;;;;;;;;;;6.75;65.32;102882.48;1832935;78;20139;-62
2021/11/10 09:31:40;;;;;;;;;;;;;;;6.69;65.20;102881.52;1832213;78;20107;-62
2021/11/10 09:34:10;;;;;;;;;;;;;;;6.66;65.08;102886.70;1842206;77;20122;-62
2021/11/10 09:36:39;;;;;;;;;;;;;;;6.62;65.29;102883.61;1861085;77;20158;-62
2021/11/10 09:39:07;;;;;;;;;;;;;;;6.62;65.18;102877.06;1861084;77;20169;-62
2021/11/10 09:41:37;;;;;;;;;;;;;;;6.63;64.87;102878.84;1860974;77;20149;-63
2021/11/10 09:44:05;;;;;;;;;;;;;;;6.67;64.95;102881.94;1860976;77;20385;-62
2021/11/10 09:46:33;;;;;;;;;;;;;;;6.70;64.84;102892.45;1860994;77;20158;-61
2021/11/10 09:49:01;;;;;;;;;;;;;;;6.70;65.05;102891.14;1860965;77;20115;-62
2021/11/10 09:51:29;;;;;;;;;;;;;;;6.74;64.72;102890.31;1860960;77;20111;-62
2021/11/10 09:53:58;;;;;;;;;;;;;;;6.71;64.82;102891.58;1860850;77;20169;-62
2021/11/10 09:56:26;;;;;;;;;;;;;;;6.67;64.59;102893.72;1860989;77;20369;-62
2021/11/10 09:58:54;;;;;;;;;;;;;;;6.64;64.74;102891.05;1860988;77;20142;-62
2021/11/10 10:01:22;;;;;;;;;;;;;;;6.63;64.81;102901.09;1861005;77;20111;-62
2021/11/10 10:03:51;;;;;;;;;;;;;;;6.56;64.51;102902.75;1860980;77;20118;-62
2021/11/10 10:06:19;;;;;;;;;;;;;;;6.44;64.59;102906.09;1860903;77;20130;-63
2021/11/10 10:08:47;;;;;;;;;;;;;;;6.40;64.78;102902.09;1860983;77;20197;-62
2021/11/10 10:11:15;;;;;;;;;;;;;;;6.32;65.17;102902.00;1860979;77;20119;-62
2021/11/10 10:13:43;;;;;;;;;;;;;;;6.35;65.34;102900.75;1860982;77;20122;-61
2021/11/10 10:16:11;;;;;;;;;;;;;;;6.47;65.43;102900.88;1860950;77;20114;-62
2021/11/10 10:18:38;;;;;;;;;;;;;;;6.54;65.32;102905.34;1860968;77;20119;-62
2021/11/10 10:21:08;;;;;;;;;;;;;;;6.56;65.34;102908.84;1860882;77;20118;-62
2021/11/10 10:23:37;;;;;;;;;;;;;;;6.49;65.47;102907.45;1860959;77;20118;-62
2021/11/10 10:26:11;;;;;;;;;;;;;;;6.41;65.59;102903.43;1860902;77;20149;-62
2021/11/10 10:28:40;;;;;;;;;;;;;;;6.34;65.74;102910.75;1860967;77;20189;-62
2021/11/10 10:31:15;;;;;;;;;;;;;;;6.25;65.88;102905.39;1860987;77;20166;-62
2021/11/10 10:33:44;;;;;;;;;;;;;;;6.21;66.08;102908.83;1860490;77;20198;-62
2021/11/10 10:36:14;;;;;;;;;;;;;;;6.22;66.13;102905.38;1849030;78;20119;-62
2021/11/10 10:38:43;;;;;;;;;;;;;;;6.19;66.07;102909.67;1849056;77;20115;-62
2021/11/10 10:41:11;;;;;;;;;;;;;;;6.18;65.84;102905.31;1828209;78;20154;-62
2021/11/10 10:43:40;;;;;;;;;;;;;;;6.18;65.97;102901.39;1835247;78;20151;-62
2021/11/10 10:46:09;;;;;;;;;;;;;;;6.18;65.95;102905.31;1794609;80;20167;-62
2021/11/10 10:48:37;;;;;;;;;;;;;;;6.13;65.95;102904.37;1818225;79;20113;-62
2021/11/10 10:51:07;;;;;;;;;;;;;;;6.10;65.97;102912.59;1788633;80;20374;-62
2021/11/10 10:53:43;;;;;;;;;;;;;;;6.05;66.02;102911.23;1787246;80;20442;-62
2021/11/10 10:56:15;;;;;;;;;;;;;;;6.03;65.93;102916.88;1827090;79;20156;-62
2021/11/10 10:58:43;;;;;;;;;;;;;;;6.00;65.98;102915.52;1818144;79;20148;-62
2021/11/10 11:01:27;;;;;;;;;;;;;;;6.01;65.99;102915.08;1788665;80;20124;-62
2021/11/10 11:03:57;;;;;;;;;;;;;;;5.98;65.90;102918.54;1787361;80;20163;-63
2021/11/10 11:06:27;;;;;;;;;;;;;;;6.06;65.91;102921.27;1818734;79;20121;-61
2021/11/10 11:08:58;;;;;;;;;;;;;;;6.08;65.28;102912.57;1837729;78;20365;-62
2021/11/10 11:11:36;;;;;;;;;;;;;;;6.09;65.26;102912.16;1816554;79;20126;-61
2021/11/10 11:13:58;;;;;;;;;;;;;;;6.19;65.06;102912.29;1826649;79;20124;-62
2021/11/10 11:16:28;;;;;;;;;;;;;;;6.32;64.77;102920.31;1788724;80;20120;-62
2021/11/10 11:19:16;;;;;;;;;;;;;;;6.38;64.44;102915.16;1826114;79;20418;-62
2021/11/10 11:21:57;;;;;;;;;;;;;;;6.40;64.00;102921.31;1788600;80;20222;-62
2021/11/10 11:24:26;;;;;;;;;;;;;;;6.46;64.15;102920.08;1787237;80;20163;-62
2021/11/10 11:26:54;;;;;;;;;;;;;;;6.59;63.86;102925.48;1818743;79;20434;-61
2021/11/10 11:29:26;;;;;;;;;;;;;;;6.69;63.92;102922.97;1837868;78;20119;-62
2021/11/10 11:31:54;;;;;;;;;;;;;;;6.76;63.19;102928.73;1855404;77;20150;-63
2021/11/10 11:34:22;;;;;;;;;;;;;;;6.75;62.65;102930.02;1855353;77;20118;-62
2021/11/10 11:36:54;;;;;;;;;;;;;;;6.72;62.47;102934.80;1839328;77;20128;-63
2021/11/10 11:39:24;;;;;;;;;;;;;;;6.70;62.52;102936.52;1883621;76;20171;-62
2021/11/10 11:41:52;;;;;;;;;;;;;;;6.71;62.68;102928.23;1896688;76;20151;-61
2021/11/10 11:44:24;;;;;;;;;;;;;;;6.71;63.02;102937.39;1896619;76;20116;-62
2021/11/10 11:46:52;;;;;;;;;;;;;;;6.71;62.86;102938.70;1896619;76;20117;-62
2021/11/10 11:49:20;;;;;;;;;;;;;;;6.64;62.18;102933.84;1896661;74;20108;-62
2021/11/10 11:51:48;;;;;;;;;;;;;;;6.57;62.56;102931.56;1896673;76;20120;-62
2021/11/10 11:54:16;;;;;;;;;;;;;;;6.50;62.33;102942.81;1896641;75;20187;-62
2021/11/10 11:56:45;;;;;;;;;;;;;;;6.42;62.60;102943.55;1896647;76;20120;-61
2021/11/10 11:59:14;;;;;;;;;;;;;;;6.33;62.58;102943.89;1896710;76;20124;-61
2021/11/10 12:01:42;;;;;;;;;;;;;;;6.31;62.85;102947.36;1896654;76;20120;-61
2021/11/10 12:04:11;;;;;;;;;;;;;;;6.24;63.08;102950.30;1896667;76;20116;-61
2021/11/10 12:06:40;;;;;;;;;;;;;;;6.15;63.12;102951.05;1896613;76;20179;-61
2021/11/10 12:09:09;;;;;;;;;;;;;;;6.06;63.38;102952.21;1892296;76;20116;-61
2021/11/10 12:11:39;;;;;;;;;;;;;;;5.95;63.55;102956.37;1895393;76;20112;-62
2021/11/10 12:14:17;;;;;;;;;;;;;;;5.88;63.82;102964.97;1896061;76;20120;-61
2021/11/10 12:16:47;;;;;;;;;;;;;;;5.80;63.82;102964.41;1896650;76;20112;-61
2021/11/10 12:19:16;;;;;;;;;;;;;;;5.75;63.65;102962.14;1896770;76;20100;-61
2021/11/10 12:21:48;;;;;;;;;;;;;;;5.67;63.71;102963.77;1896248;76;20108;-61
2021/11/10 12:24:21;;;;;;;;;;;;;;;5.64;63.54;102966.31;1896695;76;20186;-61
2021/11/10 12:27:08;;;;;;;;;;;;;;;5.60;63.51;102977.58;1896728;76;20555;-61
2021/11/10 12:29:40;;;;;;;;;;;;;;;5.52;63.41;102980.50;1896764;76;20120;-61
2021/11/10 12:32:08;;;;;;;;;;;;;;;5.52;63.59;102980.50;1895021;76;20104;-61
2021/11/10 12:34:38;;;;;;;;;;;;;;;5.54;63.75;102985.31;1896680;76;20120;-61
2021/11/10 12:37:08;;;;;;;;;;;;;;;5.51;63.71;102993.97;1896765;76;20128;-63
2021/11/10 12:39:38;;;;;;;;;;;;;;;5.51;63.83;103000.50;1880151;75;20117;-60
2021/11/10 12:42:07;;;;;;;;;;;;;;;5.51;63.90;102997.88;1874896;77;20117;-61
2021/11/10 12:44:43;;;;;;;;;;;;;;;5.50;63.92;103003.11;1874896;77;20152;-61
2021/11/10 12:47:11;;;;;;;;;;;;;;;5.47;64.03;103004.34;1874424;77;20113;-61
2021/11/10 12:49:39;;;;;;;;;;;;;;;5.45;64.02;102999.52;1874968;75;20144;-61
2021/11/10 12:52:14;;;;;;;;;;;;;;;5.45;63.92;103003.44;1874909;77;20117;-61
2021/11/10 12:54:44;;;;;;;;;;;;;;;5.39;63.92;103005.08;1875019;77;20379;-60
2021/11/10 12:57:13;;;;;;;;;;;;;;;5.35;63.92;102999.79;1875006;77;20121;-61